Hamdan Al Kamali

Chief Scout - Al Nasr
25 Dec 2027
Saturday
Process

Personality

Adaptability (6) Ambition (5) Controversy (6) Loyalty (5) Pressure (5) Professionalism (6) Sportsmanship (11) Temperament (4)

Profile

Coaching Style Democratic
License Continental A
Determination 8
Man Management 9
Motivating 11
Discipline 6
Job Satisfaction
41%
Fatigue
0%
Role Chief Scout
Wage 18.8K p/w
Contract 14.03.2028

Performance

Behaviour Good
Training Effectiveness
21%
Player Development
45%
Injury Prevention
60%
Tactical Implementation
40%

Recent Events

Contract negotiation started now
Attended a recruitment meeting now
Contract negotiation started now
Contract negotiation started now
Contract negotiation started 7d ago
Contract negotiation started 7d ago
Observed a match 7d ago
Contract negotiation started 7d ago

Currently Monitoring

140
Player Club Status Ability Confidence Watched Last Observed Latest Vote
Riley Owen Wycombe Wanderers Negotiating 111 / 120 40% 6 06.07.2027 -
Maeson King Blackpool Active 108 / 115 40% 3 06.07.2027 -
Joseph Namatane FC Metz Active 93 / 97 40% 1 06.07.2027 -
Jonathan De Irastorza Levante Active 122 / 122 40% 12 05.07.2027 -
Martim Cunha Porto Active 101 / 110 40% 7 05.07.2027 -
Dylan Lawlor Cardiff City Active 118 / 130 40% 4 05.07.2027 -
Samuel Lucero Defensa y Justicia Active 121 / 124 40% 6 04.07.2027 -
Lucas Mbamba Westerlo Active 94 / 88 40% 9 04.07.2027 -
German Ignatov Rostov Active 98 / 107 40% 4 03.07.2027 -
Olaniyi Saheed Kwara United Active 86 / 100 40% 4 03.07.2027 -
Matvey Kislyak Lokomotiv Moscow Active 143 / 151 40% 5 01.07.2027 -
Ronan Kpakio Brentford Active 114 / 127 40% 5 01.07.2027 -
Riquelme Thompson-Jones Shrewsbury Town Active 109 / 120 40% 1 01.07.2027 -
Lorenzo Palmisani Frosinone Active 130 / 142 40% 1 30.06.2027 -
Wladimiro Falcone Lecce Active 136 / 137 40% 1 30.06.2027 -
Simone Kosijer Triestina Active 100 / 95 40% 5 29.06.2027 -
Andrey Ivlev Nizhniy Novgorod Active 109 / 117 40% 4 29.06.2027 -
Jofre Torrents Ajax Active 128 / 129 40% 3 28.06.2027 -
Tiago Freitas Benfica Active 112 / 126 40% 4 28.06.2027 -
Joe Lumley Sheffield Wednesday Lost 121 / 126 40% 2 21.06.2027 -
George Wickens Lincoln City Active 117 / 124 40% 2 21.06.2027 -
Nicolas Schmid Portsmouth Active 121 / 132 40% 1 21.06.2027 -
Zach Hemming Chesterfield Active 111 / 103 40% 1 14.06.2027 -
Manuel Lanzini Al Jazira Lost 126 / 131 72% 1 01.06.2027 -
Taye Ashby-Hammond Cheltenham Town Active 112 / 110 40% 1 31.05.2027 -
Adrian Šemper Al-Fateh Active 131 / 142 40% 1 31.05.2027 -
Facundo Di Biasi Getafe Active 117 / 132 40% 5 30.05.2027 -
Gonçalo Ribeiro Porto Active 95 / 93 40% 2 30.05.2027 -
Lisandro Tejada San Martín SJ Active 97 / 108 40% 1 30.05.2027 -
Benedek Erdélyi Debrecen Active 104 / 97 40% 2 28.05.2027 -
Esteban Ojeda Estudiantes Active 88 / 103 40% 2 28.05.2027 -
Agustín Nogueira Barracas Central Active 93 / 105 40% 1 26.05.2027 -
Diego Mascardi Spezia Lost 129 / 128 40% 1 26.05.2027 -
Alex Villa González Atlético Tucumán Active 85 / 90 40% 1 26.05.2027 -
Moncef Zekri Sporting CP Active 98 / 107 40% 6 22.05.2027 -
Godwin Oham Warri Wolves Active 94 / 87 40% 1 19.05.2027 -
Juan David Arizala Udinese Active 129 / 132 40% 2 18.05.2027 -
Jacopo Bacci Sorrento Active 101 / 111 40% 2 18.05.2027 -
Diego Rossi Forli Active 85 / 96 40% 6 17.05.2027 -
Surprise Manthosi Polokwane City Active 92 / 96 40% 4 14.05.2027 -
Karim Coulibaly RC Strasbourg Active 125 / 123 40% 7 13.05.2027 -
Riyad Idrissi Torino Active 119 / 135 40% 6 13.05.2027 -
Mattia Puzone Siracusa Active 102 / 98 40% 3 11.05.2027 -
Tommaso Cecotti Carpi Active 87 / 96 40% 6 10.05.2027 -
Mandla Mokotjo SuperSport United Active 90 / 100 40% 4 08.05.2027 -
Sergio Castillo Cortulua Active 106 / 102 40% 3 08.05.2027 -
Ibrahim Sabiu Bendel Insurance Active 83 / 90 40% 1 06.05.2027 -
Sascha Britschgi Catanzaro Active 124 / 134 40% 2 30.04.2027 -
Lisandro Musso Central Córdoba SdE Active 95 / 101 40% 1 29.04.2027 -
Juan González Atlético Tucumán Active 83 / 84 40% 1 27.04.2027 -
Joaquín Giudice Platense Active 81 / 96 40% 1 27.04.2027 -
Luca Lipani Frosinone Active 121 / 129 40% 6 26.04.2027 -
David Ozoh Derby County Active 117 / 120 40% 9 24.04.2027 -
Leandro Martins Benfica Active 96 / 88 40% 8 23.04.2027 -
Luke Campbell Newport County Active 95 / 96 40% 2 23.04.2027 -
Tommaso Orsini Sambenedettese Active 98 / 104 40% 2 23.04.2027 -
Matías Gómez Valencia Active 109 / 111 40% 3 19.04.2027 -
Tomás Silva Lanús Active 87 / 76 40% 1 19.04.2027 -
Ahmed Gaber Smouha Active 68 / 95 40% 2 15.04.2027 -
Eivind Helland Bologna Active 135 / 136 40% 5 09.04.2027 -
Edwin Asamoah Berekum Chelsea Active 81 / 81 40% 2 03.04.2027 -
Ioshua Sánchez Barracas Central Active 75 / 101 40% 1 03.04.2027 -
Patricio Flores Defensa y Justicia Active 88 / 83 40% 1 03.04.2027 -
Hamed Al-Shanqeeti Al-Ittihad Active 87 / 98 40% 2 02.04.2027 -
Mateo Rodríguez Quilmes Active 80 / 94 40% 1 02.04.2027 -
Facundo Binzugna Boca Juniors Active 76 / 93 40% 1 30.03.2027 -
Luca Fernández Barracas Central Active 78 / 88 40% 2 27.03.2027 -
Jeremías Robledo Acosta Newell's Old Boys Active 84 / 91 40% 2 25.03.2027 -
Alexandr Burkov Rodina M Active 70 / 80 40% 1 19.03.2027 -
Farhah Al-Shamrani Al-Ittihad Active 88 / 98 40% 1 19.03.2027 -
Ramiro Buratti River Plate Active 92 / 108 40% 1 19.03.2027 -
Rodrigo Russo Vélez Active 86 / 91 40% 1 18.03.2027 -
Hernán Sanabria Barracas Central Active 92 / 89 40% 1 18.03.2027 -
Ignacio Abarza Huracán Active 80 / 104 40% 1 17.03.2027 -
Tomás Escobar Independiente Rivadavia Active 87 / 99 40% 1 17.03.2027 -
Tobías Andrada Betis Active 110 / 126 40% 2 15.03.2027 -
Daniel Kelly Derby County Active 115 / 109 40% 5 14.03.2027 -
Damián Constanzo River Plate Active 87 / 88 40% 1 14.03.2027 -
Alex Mosquera Barranquilla Active 78 / 86 40% 1 13.03.2027 -
César Bravo Barranquilla Active 82 / 82 40% 1 05.03.2027 -
Máximo Gómez Vélez Active 72 / 106 40% 1 05.03.2027 -
Gianluca Valdiviezo Colón Active 93 / 101 40% 1 05.03.2027 -
Sebastián Flores Rayo Vallecano Active 103 / 112 40% 1 05.03.2027 -
Valentín Catalán Argentinos Juniors Active 82 / 83 40% 1 02.03.2027 -
Samuele Diodato Lumezzane Active 97 / 106 40% 1 26.02.2027 -
Sean Fusire Sheffield Wednesday Active 109 / 109 40% 2 19.02.2027 -
Luther Ngcobo Ajax Cape Town Active 103 / 110 40% 2 11.02.2027 -
Ignacio Perruzzi Celta Active 118 / 122 40% 1 29.01.2027 -
Salem Al Naqbi Al Shabab Active 111 / 115 40% 3 28.01.2027 -
Sergey Chernov Zenit Active 76 / 92 40% 3 28.01.2027 -
Théo Hansen Hobro Active 100 / 87 40% 1 28.01.2027 -
Mohamed Samir ENPPI Active 82 / 80 40% 1 27.01.2027 -
Maycon Cleiton Zira Lost 98 / 109 40% 2 01.01.2027 -
Alexandr Maximenko Spartak Moscow Active 129 / 126 40% 1 01.01.2027 -
Mfundo Vilakazi Kaizer Chiefs Active 102 / 118 40% 3 29.12.2026 -
Matheus Gonçalves Al-Ahli Active 131 / 128 40% 9 27.12.2026 -
Lander Astiazarán Real Sociedad Active 98 / 116 40% 3 27.12.2026 -
Alpha Touré FC Metz Active 118 / 120 40% 1 26.12.2026 -
Bradley Zwane SuperSport United Active 100 / 113 40% 1 23.12.2026 -
Gorka Gorosabel Real Sociedad Active 113 / 105 40% 6 18.12.2026 -
Dani Díaz Real Sociedad Active 109 / 128 40% 3 18.12.2026 -
Darío Ramírez Real Sociedad Active 92 / 93 40% 4 15.12.2026 -
Thalys Almería Active 118 / 119 40% 1 15.12.2026 -
Faisal Al-Abdulwahed Al-Fateh Active 91 / 92 40% 5 14.12.2026 -
Nino Marcelli Slovan Bratislava Rejected 117 / 129 40% 5 14.12.2026 Reject
Monty Batlhabane Polokwane City Active 95 / 84 40% 1 07.12.2026 -
Asanele Bonani Chippa United Active 90 / 102 40% 2 03.12.2026 -
Fahad Al Shamsi Al Shabab Active 108 / 115 40% 1 29.11.2026 -
Kirill Cheburakov Rostov Active 73 / 87 40% 1 28.11.2026 -
Yusuf Akçiçek Al-Hilal Active 121 / 129 40% 1 27.11.2026 -
Awad Aman Hajer Active 74 / 72 40% 3 25.11.2026 -
Dramane Kamagaté USM Alger Active 101 / 107 40% 3 25.11.2026 -
Alexei Dominguez Pachuca Active 113 / 118 40% 3 24.11.2026 -
Xavier Biscayzacú Sporting CP Active 118 / 132 40% 2 22.11.2026 -
Ahmed Khodary Zamalek Active 89 / 102 40% 3 20.11.2026 -
Asher Agbinone Baniyas Active 94 / 97 40% 1 18.11.2026 -
Facundo Gulli San Lorenzo Active 115 / 108 40% 1 16.11.2026 -
Christopher Bonsu Baah Al-Qadisiyah Active 121 / 117 40% 7 13.11.2026 -
Tomás Aranda Boca Juniors Active 104 / 108 40% 2 11.11.2026 -
Amir Alaa Al Ahly Active 91 / 77 40% 2 09.11.2026 -
Gady Beyuku Blackburn Rovers Active 105 / 114 40% 1 08.11.2026 -
Mateo Aguiar Defensa y Justicia Active 104 / 109 40% 2 22.10.2026 -
João Simões Sporting CP Active 123 / 135 40% 1 22.10.2026 -
Younes El Bahraoui Al-Taawoun Active 105 / 114 40% 2 19.10.2026 -
Bautista Carboni Defensores Unidos Active 114 / 118 40% 4 09.10.2026 -
Hakim Sulemana SJK Active 85 / 107 40% 1 09.10.2026 -
Juan Velázquez Atlético Madrid Active 121 / 130 40% 1 01.10.2026 -
Santiago Segovia Rosario Central Active 111 / 129 40% 1 30.09.2026 -
Lautaro Mora Huracán Active 114 / 99 40% 1 28.09.2026 -
Dylan Gorosito Boca Juniors Active 108 / 123 40% 1 24.09.2026 -
Vegard Haaland Molde Active 100 / 97 40% 1 23.09.2026 -
Luka Andrade Montevideo City Torque Active 87 / 108 40% 1 18.09.2026 -
Frédéric Lopez Olympique de Marseille Active 79 / 90 40% 1 18.09.2026 -
Abdoulkarim Traoré Al Ain Active 128 / 129 40% 2 17.09.2026 -
Sergey Pinyaev Lokomotiv Moscow Active 119 / 118 40% 1 15.09.2026 -
Luca Regiardo Newell's Old Boys Active 109 / 114 40% 1 12.09.2026 -
Sam Chambers Leeds United Active 107 / 117 40% 1 10.09.2026 -
Bautista Lo Menzo Independiente Active 83 / 106 40% 1 17.08.2026 -
Víctor Cabezas Union Magdalena Active 120 / 119 40% 1 01.08.2026 -
Julen Agirrezabala Racing Santander Active 143 / 139 40% 1 01.08.2026 -